sensor_id;sensor_type;location;lat;lon;timestamp;temperature;humidity
51853;DHT22;37894;53.172;6.598;2023-01-31T00:01:24;3.80;99.90
51853;DHT22;37894;53.172;6.598;2023-01-31T00:03:55;4.50;99.90
51853;DHT22;37894;53.172;6.598;2023-01-31T00:06:30;4.10;99.90
51853;DHT22;37894;53.172;6.598;2023-01-31T00:08:57;3.70;99.90
51853;DHT22;37894;53.172;6.598;2023-01-31T00:11:25;3.90;99.90
51853;DHT22;37894;53.172;6.598;2023-01-31T00:13:52;4.80;99.90
51853;DHT22;37894;53.172;6.598;2023-01-31T00:16:19;3.50;99.90
51853;DHT22;37894;53.172;6.598;2023-01-31T00:18:45;3.60;99.90
51853;DHT22;37894;53.172;6.598;2023-01-31T00:21:16;4.50;99.90
51853;DHT22;37894;53.172;6.598;2023-01-31T00:23:44;3.90;99.90
51853;DHT22;37894;53.172;6.598;2023-01-31T00:26:11;3.50;99.90
51853;DHT22;37894;53.172;6.598;2023-01-31T00:28:38;2.80;99.90
51853;DHT22;37894;53.172;6.598;2023-01-31T00:31:04;3.60;99.90
51853;DHT22;37894;53.172;6.598;2023-01-31T00:33:30;3.80;99.90
51853;DHT22;37894;53.172;6.598;2023-01-31T00:38:22;3.60;99.90
51853;DHT22;37894;53.172;6.598;2023-01-31T00:40:52;3.40;99.90
51853;DHT22;37894;53.172;6.598;2023-01-31T00:45:44;3.40;99.90
51853;DHT22;37894;53.172;6.598;2023-01-31T00:48:10;3.50;99.90
51853;DHT22;37894;53.172;6.598;2023-01-31T00:50:35;3.50;99.90
51853;DHT22;37894;53.172;6.598;2023-01-31T00:53:01;3.60;99.90
51853;DHT22;37894;53.172;6.598;2023-01-31T00:55:27;3.40;99.90
51853;DHT22;37894;53.172;6.598;2023-01-31T00:57:53;3.20;99.90
51853;DHT22;37894;53.172;6.598;2023-01-31T01:02:45;4.00;99.90
51853;DHT22;37894;53.172;6.598;2023-01-31T01:05:10;3.40;99.90
51853;DHT22;37894;53.172;6.598;2023-01-31T01:07:36;3.30;99.90
51853;DHT22;37894;53.172;6.598;2023-01-31T01:10:03;4.30;99.90
51853;DHT22;37894;53.172;6.598;2023-01-31T01:14:55;3.30;99.90
51853;DHT22;37894;53.172;6.598;2023-01-31T01:17:21;2.90;99.90
51853;DHT22;37894;53.172;6.598;2023-01-31T01:19:46;3.30;99.90
51853;DHT22;37894;53.172;6.598;2023-01-31T01:24:42;2.60;99.90
51853;DHT22;37894;53.172;6.598;2023-01-31T01:27:08;3.00;99.90
51853;DHT22;37894;53.172;6.598;2023-01-31T01:36:53;3.10;99.90
51853;DHT22;37894;53.172;6.598;2023-01-31T01:39:19;2.80;99.90
51853;DHT22;37894;53.172;6.598;2023-01-31T01:41:45;3.20;99.90
51853;DHT22;37894;53.172;6.598;2023-01-31T01:44:41;2.90;99.90
51853;DHT22;37894;53.172;6.598;2023-01-31T01:49:53;2.50;99.90
51853;DHT22;37894;53.172;6.598;2023-01-31T01:52:20;3.80;99.90
51853;DHT22;37894;53.172;6.598;2023-01-31T01:54:52;2.80;99.90
51853;DHT22;37894;53.172;6.598;2023-01-31T01:57:22;2.80;99.90
51853;DHT22;37894;53.172;6.598;2023-01-31T02:00:00;3.20;99.90
51853;DHT22;37894;53.172;6.598;2023-01-31T02:02:29;3.20;99.90
51853;DHT22;37894;53.172;6.598;2023-01-31T02:04:55;3.00;99.90
51853;DHT22;37894;53.172;6.598;2023-01-31T02:07:21;3.20;99.90
51853;DHT22;37894;53.172;6.598;2023-01-31T02:09:52;3.20;99.90
51853;DHT22;37894;53.172;6.598;2023-01-31T02:12:20;3.90;99.90
51853;DHT22;37894;53.172;6.598;2023-01-31T02:14:47;3.20;99.90
51853;DHT22;37894;53.172;6.598;2023-01-31T02:17:16;3.30;99.90
51853;DHT22;37894;53.172;6.598;2023-01-31T02:22:38;2.80;99.90
51853;DHT22;37894;53.172;6.598;2023-01-31T02:33:59;3.40;99.90
51853;DHT22;37894;53.172;6.598;2023-01-31T02:36:56;3.40;99.90
51853;DHT22;37894;53.172;6.598;2023-01-31T02:45:28;3.20;99.90
51853;DHT22;37894;53.172;6.598;2023-01-31T02:50:45;3.80;99.90
51853;DHT22;37894;53.172;6.598;2023-01-31T02:53:36;3.90;99.90
51853;DHT22;37894;53.172;6.598;2023-01-31T02:56:09;3.80;99.90
51853;DHT22;37894;53.172;6.598;2023-01-31T02:58:43;3.70;99.90
51853;DHT22;37894;53.172;6.598;2023-01-31T03:01:13;3.70;99.90
51853;DHT22;37894;53.172;6.598;2023-01-31T03:03:40;3.50;99.90
51853;DHT22;37894;53.172;6.598;2023-01-31T03:11:25;3.50;99.90
51853;DHT22;37894;53.172;6.598;2023-01-31T03:16:51;4.70;99.90
51853;DHT22;37894;53.172;6.598;2023-01-31T03:20:26;2.90;99.90
51853;DHT22;37894;53.172;6.598;2023-01-31T03:22:50;3.80;99.90
51853;DHT22;37894;53.172;6.598;2023-01-31T03:25:22;3.60;99.90
51853;DHT22;37894;53.172;6.598;2023-01-31T03:27:52;3.80;99.90
51853;DHT22;37894;53.172;6.598;2023-01-31T03:30:30;3.70;99.90
51853;DHT22;37894;53.172;6.598;2023-01-31T03:33:05;3.80;99.90
51853;DHT22;37894;53.172;6.598;2023-01-31T03:35:34;3.90;99.90
51853;DHT22;37894;53.172;6.598;2023-01-31T03:38:24;3.60;99.90
51853;DHT22;37894;53.172;6.598;2023-01-31T03:40:57;4.10;99.90
51853;DHT22;37894;53.172;6.598;2023-01-31T03:45:56;4.20;99.90
51853;DHT22;37894;53.172;6.598;2023-01-31T03:48:28;3.80;99.90
51853;DHT22;37894;53.172;6.598;2023-01-31T03:50:58;4.10;99.90
51853;DHT22;37894;53.172;6.598;2023-01-31T03:53:37;4.00;99.90
51853;DHT22;37894;53.172;6.598;2023-01-31T03:56:15;3.90;99.90
51853;DHT22;37894;53.172;6.598;2023-01-31T03:58:46;3.70;99.90
51853;DHT22;37894;53.172;6.598;2023-01-31T04:01:16;4.00;99.90
51853;DHT22;37894;53.172;6.598;2023-01-31T04:03:50;3.10;99.90
51853;DHT22;37894;53.172;6.598;2023-01-31T04:08:42;3.90;99.90
51853;DHT22;37894;53.172;6.598;2023-01-31T04:11:11;5.20;99.90
51853;DHT22;37894;53.172;6.598;2023-01-31T04:13:37;3.90;99.90
51853;DHT22;37894;53.172;6.598;2023-01-31T04:16:04;4.30;99.90
51853;DHT22;37894;53.172;6.598;2023-01-31T04:18:29;3.80;99.90
51853;DHT22;37894;53.172;6.598;2023-01-31T04:20:55;4.30;99.90
51853;DHT22;37894;53.172;6.598;2023-01-31T04:23:21;3.90;99.90
51853;DHT22;37894;53.172;6.598;2023-01-31T04:25:46;3.80;99.90
51853;DHT22;37894;53.172;6.598;2023-01-31T04:33:04;4.10;99.90
51853;DHT22;37894;53.172;6.598;2023-01-31T04:35:30;4.60;99.90
51853;DHT22;37894;53.172;6.598;2023-01-31T04:37:56;3.90;99.90
51853;DHT22;37894;53.172;6.598;2023-01-31T04:42:49;4.30;99.90
51853;DHT22;37894;53.172;6.598;2023-01-31T04:45:15;4.40;99.90
51853;DHT22;37894;53.172;6.598;2023-01-31T04:47:41;4.50;99.90
51853;DHT22;37894;53.172;6.598;2023-01-31T04:50:07;4.40;99.90
51853;DHT22;37894;53.172;6.598;2023-01-31T04:52:33;4.60;99.90
51853;DHT22;37894;53.172;6.598;2023-01-31T04:54:59;5.40;99.90
51853;DHT22;37894;53.172;6.598;2023-01-31T04:57:25;3.80;99.90
51853;DHT22;37894;53.172;6.598;2023-01-31T04:59:50;4.00;99.90
51853;DHT22;37894;53.172;6.598;2023-01-31T05:02:16;4.90;99.90
51853;DHT22;37894;53.172;6.598;2023-01-31T05:04:43;4.40;99.90
51853;DHT22;37894;53.172;6.598;2023-01-31T05:07:09;4.80;99.90
51853;DHT22;37894;53.172;6.598;2023-01-31T05:09:34;5.70;99.90
51853;DHT22;37894;53.172;6.598;2023-01-31T05:12:00;4.60;99.90
51853;DHT22;37894;53.172;6.598;2023-01-31T05:14:26;4.80;99.90
51853;DHT22;37894;53.172;6.598;2023-01-31T05:19:18;4.80;99.90
51853;DHT22;37894;53.172;6.598;2023-01-31T05:21:44;5.10;99.90
51853;DHT22;37894;53.172;6.598;2023-01-31T05:24:27;4.90;99.90
51853;DHT22;37894;53.172;6.598;2023-01-31T05:26:53;5.00;99.90
51853;DHT22;37894;53.172;6.598;2023-01-31T05:29:24;5.20;99.90
51853;DHT22;37894;53.172;6.598;2023-01-31T05:31:54;4.90;99.90
51853;DHT22;37894;53.172;6.598;2023-01-31T05:34:21;5.00;99.90
51853;DHT22;37894;53.172;6.598;2023-01-31T05:39:15;5.20;99.90
51853;DHT22;37894;53.172;6.598;2023-01-31T05:41:40;4.90;99.90
51853;DHT22;37894;53.172;6.598;2023-01-31T05:46:32;4.90;99.90
51853;DHT22;37894;53.172;6.598;2023-01-31T05:51:24;5.50;99.90
51853;DHT22;37894;53.172;6.598;2023-01-31T05:53:50;5.30;99.90
51853;DHT22;37894;53.172;6.598;2023-01-31T06:01:08;5.50;99.90
51853;DHT22;37894;53.172;6.598;2023-01-31T06:06:00;5.80;99.90
51853;DHT22;37894;53.172;6.598;2023-01-31T06:10:52;5.50;99.90
51853;DHT22;37894;53.172;6.598;2023-01-31T06:13:17;6.50;99.90
51853;DHT22;37894;53.172;6.598;2023-01-31T06:15:43;6.40;99.90
51853;DHT22;37894;53.172;6.598;2023-01-31T06:18:10;5.90;99.90
51853;DHT22;37894;53.172;6.598;2023-01-31T06:20:36;5.60;99.90
51853;DHT22;37894;53.172;6.598;2023-01-31T06:23:03;5.30;99.90
51853;DHT22;37894;53.172;6.598;2023-01-31T06:25:29;5.60;99.90
51853;DHT22;37894;53.172;6.598;2023-01-31T06:27:55;5.30;99.90
51853;DHT22;37894;53.172;6.598;2023-01-31T06:30:22;5.80;99.90
51853;DHT22;37894;53.172;6.598;2023-01-31T06:32:47;5.80;99.90
51853;DHT22;37894;53.172;6.598;2023-01-31T06:35:13;5.70;99.90
51853;DHT22;37894;53.172;6.598;2023-01-31T06:37:39;5.30;99.90
51853;DHT22;37894;53.172;6.598;2023-01-31T06:40:05;6.70;99.90
51853;DHT22;37894;53.172;6.598;2023-01-31T06:42:31;5.60;99.90
51853;DHT22;37894;53.172;6.598;2023-01-31T06:44:57;6.30;99.90
51853;DHT22;37894;53.172;6.598;2023-01-31T06:49:48;5.80;99.90
51853;DHT22;37894;53.172;6.598;2023-01-31T06:52:14;5.80;99.90
51853;DHT22;37894;53.172;6.598;2023-01-31T06:57:06;5.00;99.90
51853;DHT22;37894;53.172;6.598;2023-01-31T06:59:32;5.50;99.90
51853;DHT22;37894;53.172;6.598;2023-01-31T07:01:57;5.70;99.90
51853;DHT22;37894;53.172;6.598;2023-01-31T07:04:23;5.80;99.90
51853;DHT22;37894;53.172;6.598;2023-01-31T07:06:49;5.10;99.90
51853;DHT22;37894;53.172;6.598;2023-01-31T07:09:15;5.30;99.90
51853;DHT22;37894;53.172;6.598;2023-01-31T07:14:06;5.90;99.90
51853;DHT22;37894;53.172;6.598;2023-01-31T07:16:32;5.20;99.90
51853;DHT22;37894;53.172;6.598;2023-01-31T07:18:58;5.60;99.90
51853;DHT22;37894;53.172;6.598;2023-01-31T07:21:24;5.80;99.90
51853;DHT22;37894;53.172;6.598;2023-01-31T07:23:50;5.30;99.90
51853;DHT22;37894;53.172;6.598;2023-01-31T07:26:16;6.10;99.90
51853;DHT22;37894;53.172;6.598;2023-01-31T07:28:42;5.60;99.90
51853;DHT22;37894;53.172;6.598;2023-01-31T07:31:10;5.50;99.90
51853;DHT22;37894;53.172;6.598;2023-01-31T07:33:37;5.90;99.90
51853;DHT22;37894;53.172;6.598;2023-01-31T07:36:04;6.70;99.90
51853;DHT22;37894;53.172;6.598;2023-01-31T07:38:30;5.70;99.90
51853;DHT22;37894;53.172;6.598;2023-01-31T07:41:01;6.00;99.90
51853;DHT22;37894;53.172;6.598;2023-01-31T07:43:28;5.10;99.90
51853;DHT22;37894;53.172;6.598;2023-01-31T07:48:20;5.70;99.90
51853;DHT22;37894;53.172;6.598;2023-01-31T07:50:57;5.80;99.90
51853;DHT22;37894;53.172;6.598;2023-01-31T07:53:23;6.00;99.90
51853;DHT22;37894;53.172;6.598;2023-01-31T07:58:17;6.10;99.90
51853;DHT22;37894;53.172;6.598;2023-01-31T08:00:42;6.00;99.90
51853;DHT22;37894;53.172;6.598;2023-01-31T08:03:28;5.20;99.90
51853;DHT22;37894;53.172;6.598;2023-01-31T08:06:01;6.30;99.90
51853;DHT22;37894;53.172;6.598;2023-01-31T08:08:27;5.90;99.90
51853;DHT22;37894;53.172;6.598;2023-01-31T08:15:46;5.90;99.90
51853;DHT22;37894;53.172;6.598;2023-01-31T08:18:13;5.90;99.90
51853;DHT22;37894;53.172;6.598;2023-01-31T08:23:05;5.70;99.90
51853;DHT22;37894;53.172;6.598;2023-01-31T08:27:58;6.10;99.90
51853;DHT22;37894;53.172;6.598;2023-01-31T08:30:24;6.30;99.90
51853;DHT22;37894;53.172;6.598;2023-01-31T08:35:16;6.10;99.90
51853;DHT22;37894;53.172;6.598;2023-01-31T08:37:41;6.00;99.90
51853;DHT22;37894;53.172;6.598;2023-01-31T08:40:08;7.30;99.90
51853;DHT22;37894;53.172;6.598;2023-01-31T08:42:33;5.60;99.90
51853;DHT22;37894;53.172;6.598;2023-01-31T08:44:59;6.00;99.90
51853;DHT22;37894;53.172;6.598;2023-01-31T08:54:43;5.60;99.90
51853;DHT22;37894;53.172;6.598;2023-01-31T08:57:09;6.30;99.90
51853;DHT22;37894;53.172;6.598;2023-01-31T09:02:01;6.50;99.90
51853;DHT22;37894;53.172;6.598;2023-01-31T09:04:27;6.10;99.90
51853;DHT22;37894;53.172;6.598;2023-01-31T09:06:53;6.40;99.90
51853;DHT22;37894;53.172;6.598;2023-01-31T09:09:19;6.50;99.90
51853;DHT22;37894;53.172;6.598;2023-01-31T09:14:11;6.30;99.90
51853;DHT22;37894;53.172;6.598;2023-01-31T09:21:32;6.50;99.90
51853;DHT22;37894;53.172;6.598;2023-01-31T09:23:59;6.60;99.90
51853;DHT22;37894;53.172;6.598;2023-01-31T09:26:27;6.50;99.90
51853;DHT22;37894;53.172;6.598;2023-01-31T09:28:53;6.30;99.90
51853;DHT22;37894;53.172;6.598;2023-01-31T09:31:20;6.50;99.90
51853;DHT22;37894;53.172;6.598;2023-01-31T09:36:15;6.70;99.90
51853;DHT22;37894;53.172;6.598;2023-01-31T09:38:41;5.80;99.90
51853;DHT22;37894;53.172;6.598;2023-01-31T09:41:37;6.60;99.90
51853;DHT22;37894;53.172;6.598;2023-01-31T09:44:13;7.00;99.90
51853;DHT22;37894;53.172;6.598;2023-01-31T09:46:46;6.30;99.90
51853;DHT22;37894;53.172;6.598;2023-01-31T09:49:42;6.70;99.90
51853;DHT22;37894;53.172;6.598;2023-01-31T09:52:09;6.50;99.90
51853;DHT22;37894;53.172;6.598;2023-01-31T09:54:37;6.80;99.90
51853;DHT22;37894;53.172;6.598;2023-01-31T10:00:21;6.00;99.90
51853;DHT22;37894;53.172;6.598;2023-01-31T10:06:21;6.50;99.90
51853;DHT22;37894;53.172;6.598;2023-01-31T10:09:32;6.70;99.90
51853;DHT22;37894;53.172;6.598;2023-01-31T10:12:18;6.90;99.90
51853;DHT22;37894;53.172;6.598;2023-01-31T10:14:51;7.10;99.90
51853;DHT22;37894;53.172;6.598;2023-01-31T10:17:36;6.80;99.90
51853;DHT22;37894;53.172;6.598;2023-01-31T10:20:26;7.10;99.90
51853;DHT22;37894;53.172;6.598;2023-01-31T10:31:00;7.10;99.90
51853;DHT22;37894;53.172;6.598;2023-01-31T10:34:08;7.00;99.90
51853;DHT22;37894;53.172;6.598;2023-01-31T10:36:51;6.90;99.90
51853;DHT22;37894;53.172;6.598;2023-01-31T10:39:27;6.70;99.90
51853;DHT22;37894;53.172;6.598;2023-01-31T10:42:31;7.30;99.90
51853;DHT22;37894;53.172;6.598;2023-01-31T10:47:33;6.70;99.90
51853;DHT22;37894;53.172;6.598;2023-01-31T10:50:01;6.70;99.90
51853;DHT22;37894;53.172;6.598;2023-01-31T10:55:37;6.70;99.90
51853;DHT22;37894;53.172;6.598;2023-01-31T10:58:09;6.40;99.90
51853;DHT22;37894;53.172;6.598;2023-01-31T11:00:36;6.80;99.90
51853;DHT22;37894;53.172;6.598;2023-01-31T11:05:28;6.80;99.90
51853;DHT22;37894;53.172;6.598;2023-01-31T11:07:58;5.80;99.90
51853;DHT22;37894;53.172;6.598;2023-01-31T11:10:28;6.00;99.90
51853;DHT22;37894;53.172;6.598;2023-01-31T11:12:56;6.60;99.90
51853;DHT22;37894;53.172;6.598;2023-01-31T11:15:26;6.60;99.90
51853;DHT22;37894;53.172;6.598;2023-01-31T11:17:55;6.10;99.90
51853;DHT22;37894;53.172;6.598;2023-01-31T11:20:30;7.00;99.90
51853;DHT22;37894;53.172;6.598;2023-01-31T11:22:58;6.70;99.90
51853;DHT22;37894;53.172;6.598;2023-01-31T11:25:25;7.20;99.90
51853;DHT22;37894;53.172;6.598;2023-01-31T11:28:01;6.70;99.90
51853;DHT22;37894;53.172;6.598;2023-01-31T11:30:37;7.60;99.90
51853;DHT22;37894;53.172;6.598;2023-01-31T11:33:03;6.70;99.90
51853;DHT22;37894;53.172;6.598;2023-01-31T11:35:31;6.90;99.90
51853;DHT22;37894;53.172;6.598;2023-01-31T11:40:39;6.70;99.90
51853;DHT22;37894;53.172;6.598;2023-01-31T11:45:59;6.80;99.90
51853;DHT22;37894;53.172;6.598;2023-01-31T11:48:46;6.90;99.90
51853;DHT22;37894;53.172;6.598;2023-01-31T11:51:25;6.20;99.90
51853;DHT22;37894;53.172;6.598;2023-01-31T11:53:55;6.90;99.90
51853;DHT22;37894;53.172;6.598;2023-01-31T11:56:30;6.70;99.90
51853;DHT22;37894;53.172;6.598;2023-01-31T11:59:02;7.20;99.90
51853;DHT22;37894;53.172;6.598;2023-01-31T12:01:44;7.00;99.90
51853;DHT22;37894;53.172;6.598;2023-01-31T12:04:15;6.40;99.90
51853;DHT22;37894;53.172;6.598;2023-01-31T12:06:55;8.10;99.90
51853;DHT22;37894;53.172;6.598;2023-01-31T12:09:27;8.00;99.90
51853;DHT22;37894;53.172;6.598;2023-01-31T12:12:01;7.20;99.90
51853;DHT22;37894;53.172;6.598;2023-01-31T12:14:41;7.20;99.90
51853;DHT22;37894;53.172;6.598;2023-01-31T12:17:15;7.80;99.90
51853;DHT22;37894;53.172;6.598;2023-01-31T12:36:03;7.60;99.90
51853;DHT22;37894;53.172;6.598;2023-01-31T12:41:38;8.10;99.90
51853;DHT22;37894;53.172;6.598;2023-01-31T12:44:33;8.40;99.90
51853;DHT22;37894;53.172;6.598;2023-01-31T12:52:25;8.00;99.90
51853;DHT22;37894;53.172;6.598;2023-01-31T12:55:09;8.10;99.90
51853;DHT22;37894;53.172;6.598;2023-01-31T13:00:41;8.00;99.90
51853;DHT22;37894;53.172;6.598;2023-01-31T13:03:28;7.10;99.90
51853;DHT22;37894;53.172;6.598;2023-01-31T13:06:08;8.00;99.90
51853;DHT22;37894;53.172;6.598;2023-01-31T13:08:42;8.00;99.90
51853;DHT22;37894;53.172;6.598;2023-01-31T13:11:16;8.20;99.90
51853;DHT22;37894;53.172;6.598;2023-01-31T13:13:54;8.20;99.90
51853;DHT22;37894;53.172;6.598;2023-01-31T13:16:25;7.90;99.90
51853;DHT22;37894;53.172;6.598;2023-01-31T13:18:57;8.00;99.90
51853;DHT22;37894;53.172;6.598;2023-01-31T13:21:28;8.30;99.90
51853;DHT22;37894;53.172;6.598;2023-01-31T13:26:34;8.20;99.90
51853;DHT22;37894;53.172;6.598;2023-01-31T13:29:13;8.00;99.90
51853;DHT22;37894;53.172;6.598;2023-01-31T13:36:52;8.50;99.90
51853;DHT22;37894;53.172;6.598;2023-01-31T13:39:23;8.10;99.90
51853;DHT22;37894;53.172;6.598;2023-01-31T13:41:51;8.10;99.90
51853;DHT22;37894;53.172;6.598;2023-01-31T13:44:17;8.30;99.90
51853;DHT22;37894;53.172;6.598;2023-01-31T13:46:56;8.10;99.90
51853;DHT22;37894;53.172;6.598;2023-01-31T13:52:00;8.30;99.90
51853;DHT22;37894;53.172;6.598;2023-01-31T13:54:39;8.30;99.90
51853;DHT22;37894;53.172;6.598;2023-01-31T13:57:05;8.20;99.90
51853;DHT22;37894;53.172;6.598;2023-01-31T13:59:35;8.40;99.90
51853;DHT22;37894;53.172;6.598;2023-01-31T14:02:17;8.50;99.90
51853;DHT22;37894;53.172;6.598;2023-01-31T14:04:43;8.70;99.90
51853;DHT22;37894;53.172;6.598;2023-01-31T14:07:15;8.70;99.90
51853;DHT22;37894;53.172;6.598;2023-01-31T14:12:36;7.60;99.90
51853;DHT22;37894;53.172;6.598;2023-01-31T14:15:45;8.40;99.90
51853;DHT22;37894;53.172;6.598;2023-01-31T14:18:16;8.20;99.90
51853;DHT22;37894;53.172;6.598;2023-01-31T14:24:00;8.60;99.90
51853;DHT22;37894;53.172;6.598;2023-01-31T14:29:17;8.70;99.90
51853;DHT22;37894;53.172;6.598;2023-01-31T14:31:44;8.50;99.90
51853;DHT22;37894;53.172;6.598;2023-01-31T14:34:36;8.50;99.90
51853;DHT22;37894;53.172;6.598;2023-01-31T14:40:12;8.00;99.90
51853;DHT22;37894;53.172;6.598;2023-01-31T14:48:10;8.60;99.90
51853;DHT22;37894;53.172;6.598;2023-01-31T14:51:00;7.50;99.90
51853;DHT22;37894;53.172;6.598;2023-01-31T14:58:57;8.30;99.90
51853;DHT22;37894;53.172;6.598;2023-01-31T15:01:31;8.40;99.90
51853;DHT22;37894;53.172;6.598;2023-01-31T15:06:32;8.30;99.90
51853;DHT22;37894;53.172;6.598;2023-01-31T15:11:47;8.10;99.90
51853;DHT22;37894;53.172;6.598;2023-01-31T15:20:05;8.20;99.90
51853;DHT22;37894;53.172;6.598;2023-01-31T15:22:40;8.10;99.90
51853;DHT22;37894;53.172;6.598;2023-01-31T15:25:28;8.00;99.90
51853;DHT22;37894;53.172;6.598;2023-01-31T15:27:59;8.00;99.90
51853;DHT22;37894;53.172;6.598;2023-01-31T15:30:27;7.90;99.90
51853;DHT22;37894;53.172;6.598;2023-01-31T15:35:48;7.80;99.90
51853;DHT22;37894;53.172;6.598;2023-01-31T15:43:45;7.60;99.90
51853;DHT22;37894;53.172;6.598;2023-01-31T15:46:26;7.70;99.90
51853;DHT22;37894;53.172;6.598;2023-01-31T15:53:46;7.60;99.90
51853;DHT22;37894;53.172;6.598;2023-01-31T15:56:25;7.50;99.90
51853;DHT22;37894;53.172;6.598;2023-01-31T15:58:55;7.50;99.90
51853;DHT22;37894;53.172;6.598;2023-01-31T16:03:54;7.50;99.90
51853;DHT22;37894;53.172;6.598;2023-01-31T16:06:35;7.30;99.90
51853;DHT22;37894;53.172;6.598;2023-01-31T16:09:04;7.30;99.90
51853;DHT22;37894;53.172;6.598;2023-01-31T16:11:32;7.30;99.90
51853;DHT22;37894;53.172;6.598;2023-01-31T16:14:01;7.20;99.90
51853;DHT22;37894;53.172;6.598;2023-01-31T16:16:28;7.10;99.90
51853;DHT22;37894;53.172;6.598;2023-01-31T16:18:57;7.20;99.90
51853;DHT22;37894;53.172;6.598;2023-01-31T16:21:37;8.00;99.90
51853;DHT22;37894;53.172;6.598;2023-01-31T16:24:23;7.30;99.90
51853;DHT22;37894;53.172;6.598;2023-01-31T16:29:17;6.90;99.90
51853;DHT22;37894;53.172;6.598;2023-01-31T16:31:52;7.80;99.90
51853;DHT22;37894;53.172;6.598;2023-01-31T16:34:33;6.60;99.90
51853;DHT22;37894;53.172;6.598;2023-01-31T16:37:05;6.90;99.90
51853;DHT22;37894;53.172;6.598;2023-01-31T16:39:48;6.60;99.90
51853;DHT22;37894;53.172;6.598;2023-01-31T16:42:22;6.40;99.90
51853;DHT22;37894;53.172;6.598;2023-01-31T16:44:53;7.00;99.90
51853;DHT22;37894;53.172;6.598;2023-01-31T16:52:49;6.60;99.90
51853;DHT22;37894;53.172;6.598;2023-01-31T16:55:18;6.60;99.90
51853;DHT22;37894;53.172;6.598;2023-01-31T16:57:44;6.80;99.90
51853;DHT22;37894;53.172;6.598;2023-01-31T17:02:57;6.60;99.90
51853;DHT22;37894;53.172;6.598;2023-01-31T17:05:34;6.50;99.90
51853;DHT22;37894;53.172;6.598;2023-01-31T17:08:02;6.30;99.90
51853;DHT22;37894;53.172;6.598;2023-01-31T17:10:30;6.40;99.90
51853;DHT22;37894;53.172;6.598;2023-01-31T17:13:19;6.80;99.90
51853;DHT22;37894;53.172;6.598;2023-01-31T17:18:12;6.50;99.90
51853;DHT22;37894;53.172;6.598;2023-01-31T17:20:43;6.60;99.90
51853;DHT22;37894;53.172;6.598;2023-01-31T17:23:10;6.30;99.90
51853;DHT22;37894;53.172;6.598;2023-01-31T17:25:37;5.60;99.90
51853;DHT22;37894;53.172;6.598;2023-01-31T17:28:04;6.30;99.90
51853;DHT22;37894;53.172;6.598;2023-01-31T17:30:30;6.00;99.90
51853;DHT22;37894;53.172;6.598;2023-01-31T17:32:58;6.30;99.90
51853;DHT22;37894;53.172;6.598;2023-01-31T17:35:36;6.30;99.90
51853;DHT22;37894;53.172;6.598;2023-01-31T17:38:03;6.50;99.90
51853;DHT22;37894;53.172;6.598;2023-01-31T17:43:00;6.20;99.90
51853;DHT22;37894;53.172;6.598;2023-01-31T17:45:27;6.20;99.90
51853;DHT22;37894;53.172;6.598;2023-01-31T17:50:25;6.80;99.90
51853;DHT22;37894;53.172;6.598;2023-01-31T17:52:51;6.20;99.90
51853;DHT22;37894;53.172;6.598;2023-01-31T17:55:17;6.10;99.90
51853;DHT22;37894;53.172;6.598;2023-01-31T17:57:45;6.10;99.90
51853;DHT22;37894;53.172;6.598;2023-01-31T18:00:13;6.10;99.90
51853;DHT22;37894;53.172;6.598;2023-01-31T18:02:39;6.00;99.90
51853;DHT22;37894;53.172;6.598;2023-01-31T18:05:13;6.00;99.90
51853;DHT22;37894;53.172;6.598;2023-01-31T18:07:40;6.00;99.90
51853;DHT22;37894;53.172;6.598;2023-01-31T18:10:08;5.00;99.90
51853;DHT22;37894;53.172;6.598;2023-01-31T18:12:34;6.00;99.90
51853;DHT22;37894;53.172;6.598;2023-01-31T18:17:27;6.20;99.90
51853;DHT22;37894;53.172;6.598;2023-01-31T18:19:53;6.00;99.90
51853;DHT22;37894;53.172;6.598;2023-01-31T18:29:38;5.70;99.90
51853;DHT22;37894;53.172;6.598;2023-01-31T18:34:33;5.60;99.90
51853;DHT22;37894;53.172;6.598;2023-01-31T18:37:04;5.80;99.90
51853;DHT22;37894;53.172;6.598;2023-01-31T18:39:39;5.90;99.90
51853;DHT22;37894;53.172;6.598;2023-01-31T18:42:05;5.60;99.90
51853;DHT22;37894;53.172;6.598;2023-01-31T18:44:31;5.80;99.90
51853;DHT22;37894;53.172;6.598;2023-01-31T18:46:56;5.70;99.90
51853;DHT22;37894;53.172;6.598;2023-01-31T18:51:48;6.20;99.90
51853;DHT22;37894;53.172;6.598;2023-01-31T18:54:14;5.70;99.90
51853;DHT22;37894;53.172;6.598;2023-01-31T18:56:40;5.60;99.90
51853;DHT22;37894;53.172;6.598;2023-01-31T18:59:06;6.00;99.90
51853;DHT22;37894;53.172;6.598;2023-01-31T19:01:32;5.60;99.90
51853;DHT22;37894;53.172;6.598;2023-01-31T19:03:57;5.90;99.90
51853;DHT22;37894;53.172;6.598;2023-01-31T19:06:27;5.40;99.90
51853;DHT22;37894;53.172;6.598;2023-01-31T19:08:54;6.10;99.90
51853;DHT22;37894;53.172;6.598;2023-01-31T19:11:22;6.00;99.90
51853;DHT22;37894;53.172;6.598;2023-01-31T19:13:48;5.60;99.90
51853;DHT22;37894;53.172;6.598;2023-01-31T19:16:16;5.20;99.90
51853;DHT22;37894;53.172;6.598;2023-01-31T19:18:42;5.80;99.90
51853;DHT22;37894;53.172;6.598;2023-01-31T19:21:16;5.50;99.90
51853;DHT22;37894;53.172;6.598;2023-01-31T19:26:09;5.20;99.90
51853;DHT22;37894;53.172;6.598;2023-01-31T19:28:36;6.00;99.90
51853;DHT22;37894;53.172;6.598;2023-01-31T19:31:04;5.60;99.90
51853;DHT22;37894;53.172;6.598;2023-01-31T19:33:30;5.90;99.90
51853;DHT22;37894;53.172;6.598;2023-01-31T19:35:55;5.90;99.90
51853;DHT22;37894;53.172;6.598;2023-01-31T19:38:21;5.90;99.90
51853;DHT22;37894;53.172;6.598;2023-01-31T19:40:47;6.80;99.90
51853;DHT22;37894;53.172;6.598;2023-01-31T19:43:16;5.70;99.90
51853;DHT22;37894;53.172;6.598;2023-01-31T19:45:42;4.90;99.90
51853;DHT22;37894;53.172;6.598;2023-01-31T19:48:08;6.30;99.90
51853;DHT22;37894;53.172;6.598;2023-01-31T19:53:03;5.60;99.90
51853;DHT22;37894;53.172;6.598;2023-01-31T19:55:31;5.60;99.90
51853;DHT22;37894;53.172;6.598;2023-01-31T19:57:56;6.10;99.90
51853;DHT22;37894;53.172;6.598;2023-01-31T20:02:48;5.30;99.90
51853;DHT22;37894;53.172;6.598;2023-01-31T20:07:40;6.60;99.90
51853;DHT22;37894;53.172;6.598;2023-01-31T20:10:10;5.60;99.90
51853;DHT22;37894;53.172;6.598;2023-01-31T20:12:37;5.40;99.90
51853;DHT22;37894;53.172;6.598;2023-01-31T20:15:03;4.90;99.90
51853;DHT22;37894;53.172;6.598;2023-01-31T20:17:30;5.70;99.90
51853;DHT22;37894;53.172;6.598;2023-01-31T20:22:22;5.70;99.90
51853;DHT22;37894;53.172;6.598;2023-01-31T20:24:48;5.90;99.90
51853;DHT22;37894;53.172;6.598;2023-01-31T20:27:14;5.70;99.90
51853;DHT22;37894;53.172;6.598;2023-01-31T20:29:40;5.70;99.90
51853;DHT22;37894;53.172;6.598;2023-01-31T20:32:07;5.60;99.90
51853;DHT22;37894;53.172;6.598;2023-01-31T20:34:34;5.50;99.90
51853;DHT22;37894;53.172;6.598;2023-01-31T20:39:26;5.90;99.90
51853;DHT22;37894;53.172;6.598;2023-01-31T20:41:53;5.80;99.90
51853;DHT22;37894;53.172;6.598;2023-01-31T20:46:44;5.80;99.90
51853;DHT22;37894;53.172;6.598;2023-01-31T20:49:10;5.50;99.90
51853;DHT22;37894;53.172;6.598;2023-01-31T20:51:36;5.80;99.90
51853;DHT22;37894;53.172;6.598;2023-01-31T20:54:02;5.50;99.90
51853;DHT22;37894;53.172;6.598;2023-01-31T21:01:20;6.40;99.90